sensor_id;sensor_type;location;lat;lon;timestamp;P1;durP1;ratioP1;P2;durP2;ratioP2
82176;SDS011;71758;48.714;9.584;2023-09-12T00:00:41;15.88;;;8.48;;
82176;SDS011;71758;48.714;9.584;2023-09-12T00:03:07;15.93;;;8.40;;
82176;SDS011;71758;48.714;9.584;2023-09-12T00:05:33;12.93;;;8.20;;
82176;SDS011;71758;48.714;9.584;2023-09-12T00:07:58;14.60;;;7.53;;
82176;SDS011;71758;48.714;9.584;2023-09-12T00:10:24;15.60;;;7.85;;
82176;SDS011;71758;48.714;9.584;2023-09-12T00:12:49;16.63;;;8.25;;
82176;SDS011;71758;48.714;9.584;2023-09-12T00:15:15;11.40;;;7.72;;
82176;SDS011;71758;48.714;9.584;2023-09-12T00:17:40;15.07;;;9.00;;
82176;SDS011;71758;48.714;9.584;2023-09-12T00:20:06;15.45;;;8.90;;
82176;SDS011;71758;48.714;9.584;2023-09-12T00:22:32;16.52;;;8.13;;
82176;SDS011;71758;48.714;9.584;2023-09-12T00:24:58;15.50;;;7.93;;
82176;SDS011;71758;48.714;9.584;2023-09-12T00:27:23;13.98;;;8.23;;
82176;SDS011;71758;48.714;9.584;2023-09-12T00:29:48;13.05;;;8.18;;
82176;SDS011;71758;48.714;9.584;2023-09-12T00:32:14;13.07;;;8.00;;
82176;SDS011;71758;48.714;9.584;2023-09-12T00:34:39;17.13;;;8.82;;
82176;SDS011;71758;48.714;9.584;2023-09-12T00:37:05;15.15;;;7.95;;
82176;SDS011;71758;48.714;9.584;2023-09-12T00:39:30;13.55;;;7.80;;
82176;SDS011;71758;48.714;9.584;2023-09-12T00:41:55;15.35;;;8.27;;
82176;SDS011;71758;48.714;9.584;2023-09-12T00:44:21;15.02;;;8.18;;
82176;SDS011;71758;48.714;9.584;2023-09-12T00:46:46;16.80;;;7.65;;
82176;SDS011;71758;48.714;9.584;2023-09-12T00:49:14;12.70;;;7.30;;
82176;SDS011;71758;48.714;9.584;2023-09-12T00:51:43;14.32;;;8.00;;
82176;SDS011;71758;48.714;9.584;2023-09-12T00:54:10;14.73;;;8.43;;
82176;SDS011;71758;48.714;9.584;2023-09-12T00:56:36;14.82;;;8.20;;
82176;SDS011;71758;48.714;9.584;2023-09-12T00:59:01;17.27;;;8.00;;
82176;SDS011;71758;48.714;9.584;2023-09-12T01:01:27;17.27;;;7.95;;
82176;SDS011;71758;48.714;9.584;2023-09-12T01:03:53;15.60;;;9.77;;
82176;SDS011;71758;48.714;9.584;2023-09-12T01:06:19;13.18;;;7.38;;
82176;SDS011;71758;48.714;9.584;2023-09-12T01:08:47;11.25;;;8.18;;
82176;SDS011;71758;48.714;9.584;2023-09-12T01:11:13;14.73;;;8.65;;
82176;SDS011;71758;48.714;9.584;2023-09-12T01:13:39;17.52;;;10.00;;
82176;SDS011;71758;48.714;9.584;2023-09-12T01:16:04;15.27;;;9.65;;
82176;SDS011;71758;48.714;9.584;2023-09-12T01:18:29;15.65;;;10.20;;
82176;SDS011;71758;48.714;9.584;2023-09-12T01:28:39;16.77;;;9.20;;
82176;SDS011;71758;48.714;9.584;2023-09-12T01:31:07;17.13;;;9.30;;
82176;SDS011;71758;48.714;9.584;2023-09-12T01:33:33;18.15;;;9.60;;
82176;SDS011;71758;48.714;9.584;2023-09-12T01:35:58;12.90;;;9.70;;
82176;SDS011;71758;48.714;9.584;2023-09-12T01:38:24;15.88;;;9.50;;
82176;SDS011;71758;48.714;9.584;2023-09-12T01:40:50;19.25;;;9.48;;
82176;SDS011;71758;48.714;9.584;2023-09-12T01:43:17;16.95;;;9.25;;
82176;SDS011;71758;48.714;9.584;2023-09-12T01:45:44;16.23;;;8.85;;
82176;SDS011;71758;48.714;9.584;2023-09-12T01:48:11;15.18;;;8.40;;
82176;SDS011;71758;48.714;9.584;2023-09-12T01:50:36;13.57;;;8.32;;
82176;SDS011;71758;48.714;9.584;2023-09-12T01:53:02;15.60;;;8.85;;
82176;SDS011;71758;48.714;9.584;2023-09-12T01:55:28;16.23;;;9.13;;
82176;SDS011;71758;48.714;9.584;2023-09-12T01:57:53;18.80;;;8.95;;
82176;SDS011;71758;48.714;9.584;2023-09-12T02:00:19;14.32;;;8.20;;
82176;SDS011;71758;48.714;9.584;2023-09-12T02:02:47;16.02;;;8.73;;
82176;SDS011;71758;48.714;9.584;2023-09-12T02:05:17;17.30;;;8.52;;
82176;SDS011;71758;48.714;9.584;2023-09-12T02:07:44;13.00;;;7.90;;
82176;SDS011;71758;48.714;9.584;2023-09-12T02:10:10;14.95;;;8.77;;
82176;SDS011;71758;48.714;9.584;2023-09-12T02:12:36;15.00;;;9.63;;
82176;SDS011;71758;48.714;9.584;2023-09-12T02:15:01;14.63;;;8.02;;
82176;SDS011;71758;48.714;9.584;2023-09-12T02:17:27;15.05;;;8.32;;
82176;SDS011;71758;48.714;9.584;2023-09-12T02:19:52;15.45;;;8.65;;
82176;SDS011;71758;48.714;9.584;2023-09-12T02:22:18;13.60;;;8.73;;
82176;SDS011;71758;48.714;9.584;2023-09-12T02:24:43;13.55;;;8.07;;
82176;SDS011;71758;48.714;9.584;2023-09-12T02:27:08;13.73;;;8.63;;
82176;SDS011;71758;48.714;9.584;2023-09-12T02:29:34;17.13;;;8.80;;
82176;SDS011;71758;48.714;9.584;2023-09-12T02:31:59;15.95;;;8.30;;
82176;SDS011;71758;48.714;9.584;2023-09-12T02:34:25;13.00;;;8.40;;
82176;SDS011;71758;48.714;9.584;2023-09-12T02:36:50;14.43;;;8.27;;
82176;SDS011;71758;48.714;9.584;2023-09-12T02:39:16;15.25;;;8.50;;
82176;SDS011;71758;48.714;9.584;2023-09-12T02:41:41;18.15;;;8.25;;
82176;SDS011;71758;48.714;9.584;2023-09-12T02:44:07;16.50;;;8.77;;
82176;SDS011;71758;48.714;9.584;2023-09-12T02:46:32;16.90;;;8.43;;
82176;SDS011;71758;48.714;9.584;2023-09-12T02:48:58;16.00;;;8.27;;
82176;SDS011;71758;48.714;9.584;2023-09-12T02:51:24;13.52;;;8.35;;
82176;SDS011;71758;48.714;9.584;2023-09-12T02:53:50;15.48;;;8.20;;
82176;SDS011;71758;48.714;9.584;2023-09-12T02:56:16;17.52;;;8.90;;
82176;SDS011;71758;48.714;9.584;2023-09-12T02:58:41;16.00;;;7.97;;
82176;SDS011;71758;48.714;9.584;2023-09-12T03:01:06;12.20;;;8.18;;
82176;SDS011;71758;48.714;9.584;2023-09-12T03:03:32;13.73;;;8.48;;
82176;SDS011;71758;48.714;9.584;2023-09-12T03:05:58;15.07;;;8.25;;
82176;SDS011;71758;48.714;9.584;2023-09-12T03:08:24;15.35;;;7.53;;
82176;SDS011;71758;48.714;9.584;2023-09-12T03:10:56;16.00;;;8.13;;
82176;SDS011;71758;48.714;9.584;2023-09-12T03:13:23;12.70;;;8.02;;
82176;SDS011;71758;48.714;9.584;2023-09-12T03:15:50;15.00;;;7.75;;
82176;SDS011;71758;48.714;9.584;2023-09-12T03:18:15;14.88;;;8.50;;
82176;SDS011;71758;48.714;9.584;2023-09-12T03:20:41;15.30;;;8.30;;
82176;SDS011;71758;48.714;9.584;2023-09-12T03:23:06;15.85;;;7.63;;
82176;SDS011;71758;48.714;9.584;2023-09-12T03:25:36;14.07;;;8.00;;
82176;SDS011;71758;48.714;9.584;2023-09-12T03:28:03;11.27;;;7.63;;
82176;SDS011;71758;48.714;9.584;2023-09-12T03:30:29;12.07;;;7.38;;
82176;SDS011;71758;48.714;9.584;2023-09-12T03:32:54;13.43;;;8.68;;
82176;SDS011;71758;48.714;9.584;2023-09-12T03:35:20;15.18;;;8.15;;
82176;SDS011;71758;48.714;9.584;2023-09-12T03:37:45;13.15;;;8.13;;
82176;SDS011;71758;48.714;9.584;2023-09-12T03:40:11;12.20;;;7.65;;
82176;SDS011;71758;48.714;9.584;2023-09-12T03:42:36;13.93;;;8.32;;
82176;SDS011;71758;48.714;9.584;2023-09-12T03:45:02;14.02;;;8.18;;
82176;SDS011;71758;48.714;9.584;2023-09-12T03:47:28;16.92;;;8.15;;
82176;SDS011;71758;48.714;9.584;2023-09-12T03:49:53;15.13;;;8.15;;
82176;SDS011;71758;48.714;9.584;2023-09-12T03:52:19;15.88;;;8.82;;
82176;SDS011;71758;48.714;9.584;2023-09-12T03:54:44;14.10;;;8.38;;
82176;SDS011;71758;48.714;9.584;2023-09-12T03:57:09;14.27;;;8.85;;
82176;SDS011;71758;48.714;9.584;2023-09-12T03:59:35;17.63;;;9.65;;
82176;SDS011;71758;48.714;9.584;2023-09-12T04:02:01;15.75;;;9.52;;
82176;SDS011;71758;48.714;9.584;2023-09-12T04:04:28;16.23;;;10.48;;
82176;SDS011;71758;48.714;9.584;2023-09-12T04:06:53;15.45;;;10.30;;
82176;SDS011;71758;48.714;9.584;2023-09-12T04:09:19;17.23;;;10.40;;
82176;SDS011;71758;48.714;9.584;2023-09-12T04:11:45;19.23;;;10.63;;
82176;SDS011;71758;48.714;9.584;2023-09-12T04:14:10;17.95;;;9.93;;
82176;SDS011;71758;48.714;9.584;2023-09-12T04:16:36;19.13;;;10.27;;
82176;SDS011;71758;48.714;9.584;2023-09-12T04:19:01;18.38;;;11.15;;
82176;SDS011;71758;48.714;9.584;2023-09-12T04:21:28;19.42;;;9.60;;
82176;SDS011;71758;48.714;9.584;2023-09-12T04:23:53;16.63;;;9.82;;
82176;SDS011;71758;48.714;9.584;2023-09-12T04:26:19;15.63;;;9.93;;
82176;SDS011;71758;48.714;9.584;2023-09-12T04:28:46;15.02;;;9.20;;
82176;SDS011;71758;48.714;9.584;2023-09-12T04:31:11;15.13;;;8.82;;
82176;SDS011;71758;48.714;9.584;2023-09-12T04:33:37;20.67;;;8.93;;
82176;SDS011;71758;48.714;9.584;2023-09-12T04:36:02;15.27;;;8.27;;
82176;SDS011;71758;48.714;9.584;2023-09-12T04:38:28;18.17;;;8.30;;
82176;SDS011;71758;48.714;9.584;2023-09-12T04:40:54;17.25;;;7.60;;
82176;SDS011;71758;48.714;9.584;2023-09-12T04:43:20;15.30;;;8.23;;
82176;SDS011;71758;48.714;9.584;2023-09-12T04:45:46;14.15;;;7.85;;
82176;SDS011;71758;48.714;9.584;2023-09-12T04:48:11;14.15;;;8.05;;
82176;SDS011;71758;48.714;9.584;2023-09-12T04:50:42;14.00;;;8.32;;
82176;SDS011;71758;48.714;9.584;2023-09-12T04:53:08;16.55;;;7.72;;
82176;SDS011;71758;48.714;9.584;2023-09-12T04:55:37;13.68;;;8.10;;
82176;SDS011;71758;48.714;9.584;2023-09-12T04:58:03;15.32;;;7.97;;
82176;SDS011;71758;48.714;9.584;2023-09-12T05:00:29;16.48;;;8.55;;
82176;SDS011;71758;48.714;9.584;2023-09-12T05:02:54;14.10;;;8.32;;
82176;SDS011;71758;48.714;9.584;2023-09-12T05:05:19;15.80;;;8.50;;
82176;SDS011;71758;48.714;9.584;2023-09-12T05:07:45;14.02;;;9.15;;
82176;SDS011;71758;48.714;9.584;2023-09-12T05:10:10;18.02;;;9.00;;
82176;SDS011;71758;48.714;9.584;2023-09-12T05:12:36;13.23;;;8.25;;
82176;SDS011;71758;48.714;9.584;2023-09-12T05:15:02;16.35;;;8.43;;
82176;SDS011;71758;48.714;9.584;2023-09-12T05:17:27;14.75;;;8.75;;
82176;SDS011;71758;48.714;9.584;2023-09-12T05:19:53;13.50;;;8.82;;
82176;SDS011;71758;48.714;9.584;2023-09-12T05:22:18;14.98;;;8.57;;
82176;SDS011;71758;48.714;9.584;2023-09-12T05:24:45;16.65;;;8.60;;
82176;SDS011;71758;48.714;9.584;2023-09-12T05:27:10;13.45;;;8.35;;
82176;SDS011;71758;48.714;9.584;2023-09-12T05:29:36;12.73;;;7.95;;
82176;SDS011;71758;48.714;9.584;2023-09-12T05:32:02;17.10;;;9.43;;
82176;SDS011;71758;48.714;9.584;2023-09-12T05:34:27;14.82;;;8.40;;
82176;SDS011;71758;48.714;9.584;2023-09-12T05:36:53;16.80;;;8.40;;
82176;SDS011;71758;48.714;9.584;2023-09-12T05:39:18;13.88;;;8.40;;
82176;SDS011;71758;48.714;9.584;2023-09-12T05:41:43;14.68;;;8.38;;
82176;SDS011;71758;48.714;9.584;2023-09-12T05:44:09;15.02;;;8.73;;
82176;SDS011;71758;48.714;9.584;2023-09-12T05:46:37;15.45;;;8.70;;
82176;SDS011;71758;48.714;9.584;2023-09-12T05:49:02;14.45;;;8.13;;
82176;SDS011;71758;48.714;9.584;2023-09-12T05:51:28;16.02;;;9.55;;
82176;SDS011;71758;48.714;9.584;2023-09-12T05:53:54;16.02;;;8.63;;
82176;SDS011;71758;48.714;9.584;2023-09-12T05:56:19;16.98;;;8.10;;
82176;SDS011;71758;48.714;9.584;2023-09-12T05:58:46;15.07;;;8.02;;
82176;SDS011;71758;48.714;9.584;2023-09-12T06:01:11;13.68;;;8.75;;
82176;SDS011;71758;48.714;9.584;2023-09-12T06:03:37;15.90;;;8.18;;
82176;SDS011;71758;48.714;9.584;2023-09-12T06:06:03;13.60;;;7.55;;
82176;SDS011;71758;48.714;9.584;2023-09-12T06:08:28;15.07;;;8.02;;
82176;SDS011;71758;48.714;9.584;2023-09-12T06:10:54;16.88;;;7.90;;
82176;SDS011;71758;48.714;9.584;2023-09-12T06:13:20;12.90;;;7.70;;
82176;SDS011;71758;48.714;9.584;2023-09-12T06:15:45;14.13;;;7.50;;
82176;SDS011;71758;48.714;9.584;2023-09-12T06:18:11;14.25;;;6.93;;
82176;SDS011;71758;48.714;9.584;2023-09-12T06:20:36;13.57;;;7.15;;
82176;SDS011;71758;48.714;9.584;2023-09-12T06:23:01;13.65;;;7.47;;
82176;SDS011;71758;48.714;9.584;2023-09-12T06:25:28;11.27;;;7.18;;
82176;SDS011;71758;48.714;9.584;2023-09-12T06:27:54;13.23;;;7.97;;
82176;SDS011;71758;48.714;9.584;2023-09-12T06:30:20;15.25;;;7.22;;
82176;SDS011;71758;48.714;9.584;2023-09-12T06:32:45;14.52;;;7.10;;
82176;SDS011;71758;48.714;9.584;2023-09-12T06:35:10;16.05;;;6.95;;
82176;SDS011;71758;48.714;9.584;2023-09-12T06:37:37;14.02;;;6.82;;
82176;SDS011;71758;48.714;9.584;2023-09-12T06:40:04;13.63;;;7.20;;
82176;SDS011;71758;48.714;9.584;2023-09-12T06:42:30;13.30;;;7.30;;
82176;SDS011;71758;48.714;9.584;2023-09-12T06:44:56;18.38;;;8.35;;
82176;SDS011;71758;48.714;9.584;2023-09-12T06:47:21;19.90;;;8.25;;
82176;SDS011;71758;48.714;9.584;2023-09-12T06:49:46;19.00;;;8.15;;
82176;SDS011;71758;48.714;9.584;2023-09-12T06:52:12;16.42;;;7.95;;
82176;SDS011;71758;48.714;9.584;2023-09-12T06:54:38;14.85;;;7.60;;
82176;SDS011;71758;48.714;9.584;2023-09-12T06:57:03;14.25;;;7.55;;
82176;SDS011;71758;48.714;9.584;2023-09-12T06:59:29;15.20;;;7.47;;
82176;SDS011;71758;48.714;9.584;2023-09-12T07:01:54;12.82;;;8.10;;
82176;SDS011;71758;48.714;9.584;2023-09-12T07:04:20;14.13;;;7.47;;
82176;SDS011;71758;48.714;9.584;2023-09-12T07:06:45;14.60;;;6.97;;
82176;SDS011;71758;48.714;9.584;2023-09-12T07:09:11;14.43;;;7.82;;
82176;SDS011;71758;48.714;9.584;2023-09-12T07:11:39;12.73;;;6.80;;
82176;SDS011;71758;48.714;9.584;2023-09-12T07:14:05;15.90;;;6.90;;
82176;SDS011;71758;48.714;9.584;2023-09-12T07:16:31;13.93;;;7.68;;
82176;SDS011;71758;48.714;9.584;2023-09-12T07:18:57;16.88;;;7.32;;
82176;SDS011;71758;48.714;9.584;2023-09-12T07:21:22;17.95;;;7.57;;
82176;SDS011;71758;48.714;9.584;2023-09-12T07:23:48;12.68;;;6.90;;
82176;SDS011;71758;48.714;9.584;2023-09-12T07:26:13;18.45;;;8.07;;
82176;SDS011;71758;48.714;9.584;2023-09-12T07:28:39;14.77;;;7.90;;
82176;SDS011;71758;48.714;9.584;2023-09-12T07:31:04;15.48;;;8.25;;
82176;SDS011;71758;48.714;9.584;2023-09-12T07:33:30;19.65;;;8.05;;
82176;SDS011;71758;48.714;9.584;2023-09-12T07:35:55;14.35;;;8.13;;
82176;SDS011;71758;48.714;9.584;2023-09-12T07:38:21;17.02;;;8.88;;
82176;SDS011;71758;48.714;9.584;2023-09-12T07:40:47;15.05;;;8.52;;
82176;SDS011;71758;48.714;9.584;2023-09-12T07:43:12;19.63;;;7.22;;
82176;SDS011;71758;48.714;9.584;2023-09-12T07:45:37;12.68;;;7.63;;
82176;SDS011;71758;48.714;9.584;2023-09-12T07:48:05;15.65;;;7.60;;
82176;SDS011;71758;48.714;9.584;2023-09-12T07:50:31;14.70;;;7.60;;
82176;SDS011;71758;48.714;9.584;2023-09-12T07:52:57;14.75;;;7.53;;
82176;SDS011;71758;48.714;9.584;2023-09-12T07:55:22;14.18;;;7.55;;
82176;SDS011;71758;48.714;9.584;2023-09-12T07:57:47;14.98;;;7.88;;
82176;SDS011;71758;48.714;9.584;2023-09-12T08:00:13;12.45;;;6.00;;
82176;SDS011;71758;48.714;9.584;2023-09-12T08:02:38;11.60;;;6.90;;
82176;SDS011;71758;48.714;9.584;2023-09-12T08:05:04;16.90;;;7.22;;
82176;SDS011;71758;48.714;9.584;2023-09-12T08:07:30;11.95;;;5.93;;
82176;SDS011;71758;48.714;9.584;2023-09-12T08:09:56;16.77;;;6.97;;
82176;SDS011;71758;48.714;9.584;2023-09-12T08:12:23;13.32;;;6.13;;
82176;SDS011;71758;48.714;9.584;2023-09-12T08:14:49;14.05;;;6.05;;
82176;SDS011;71758;48.714;9.584;2023-09-12T08:17:14;11.82;;;6.88;;
82176;SDS011;71758;48.714;9.584;2023-09-12T08:19:40;14.20;;;6.03;;
82176;SDS011;71758;48.714;9.584;2023-09-12T08:22:06;14.80;;;6.32;;
82176;SDS011;71758;48.714;9.584;2023-09-12T08:24:33;12.85;;;6.25;;
82176;SDS011;71758;48.714;9.584;2023-09-12T08:26:59;12.32;;;5.88;;
82176;SDS011;71758;48.714;9.584;2023-09-12T08:29:25;15.10;;;5.88;;
82176;SDS011;71758;48.714;9.584;2023-09-12T08:31:50;17.83;;;7.05;;
82176;SDS011;71758;48.714;9.584;2023-09-12T08:34:16;16.60;;;6.53;;
82176;SDS011;71758;48.714;9.584;2023-09-12T08:36:42;15.73;;;6.88;;
82176;SDS011;71758;48.714;9.584;2023-09-12T08:39:11;12.48;;;6.45;;
82176;SDS011;71758;48.714;9.584;2023-09-12T08:41:38;9.95;;;6.80;;
82176;SDS011;71758;48.714;9.584;2023-09-12T08:44:04;14.90;;;5.85;;
82176;SDS011;71758;48.714;9.584;2023-09-12T08:46:30;11.05;;;5.82;;
82176;SDS011;71758;48.714;9.584;2023-09-12T08:48:56;10.35;;;6.07;;
82176;SDS011;71758;48.714;9.584;2023-09-12T08:51:25;13.38;;;5.63;;
82176;SDS011;71758;48.714;9.584;2023-09-12T08:53:50;11.38;;;6.15;;
82176;SDS011;71758;48.714;9.584;2023-09-12T08:56:16;13.18;;;5.78;;
82176;SDS011;71758;48.714;9.584;2023-09-12T08:58:43;12.60;;;6.07;;
82176;SDS011;71758;48.714;9.584;2023-09-12T09:01:08;11.77;;;5.80;;
82176;SDS011;71758;48.714;9.584;2023-09-12T09:03:36;15.02;;;6.32;;
82176;SDS011;71758;48.714;9.584;2023-09-12T09:06:02;11.43;;;6.00;;
82176;SDS011;71758;48.714;9.584;2023-09-12T09:08:29;11.95;;;6.03;;
82176;SDS011;71758;48.714;9.584;2023-09-12T09:10:59;13.32;;;6.38;;
82176;SDS011;71758;48.714;9.584;2023-09-12T09:13:27;9.63;;;5.50;;
82176;SDS011;71758;48.714;9.584;2023-09-12T09:16:11;13.10;;;6.50;;
82176;SDS011;71758;48.714;9.584;2023-09-12T09:18:56;10.68;;;6.03;;
82176;SDS011;71758;48.714;9.584;2023-09-12T09:23:52;11.75;;;6.05;;
82176;SDS011;71758;48.714;9.584;2023-09-12T09:26:18;15.20;;;6.32;;
82176;SDS011;71758;48.714;9.584;2023-09-12T09:28:44;11.90;;;6.18;;
82176;SDS011;71758;48.714;9.584;2023-09-12T09:31:10;12.00;;;6.13;;
82176;SDS011;71758;48.714;9.584;2023-09-12T09:33:36;10.15;;;6.43;;
82176;SDS011;71758;48.714;9.584;2023-09-12T09:36:07;11.93;;;7.13;;
82176;SDS011;71758;48.714;9.584;2023-09-12T09:38:34;11.77;;;6.03;;
82176;SDS011;71758;48.714;9.584;2023-09-12T09:41:00;12.88;;;6.07;;
82176;SDS011;71758;48.714;9.584;2023-09-12T09:43:26;10.90;;;6.00;;
82176;SDS011;71758;48.714;9.584;2023-09-12T09:45:52;11.40;;;6.90;;
82176;SDS011;71758;48.714;9.584;2023-09-12T09:48:20;13.20;;;7.20;;
82176;SDS011;71758;48.714;9.584;2023-09-12T09:50:47;13.43;;;7.00;;
82176;SDS011;71758;48.714;9.584;2023-09-12T09:53:12;9.63;;;6.82;;
82176;SDS011;71758;48.714;9.584;2023-09-12T09:55:38;9.93;;;6.40;;
82176;SDS011;71758;48.714;9.584;2023-09-12T09:58:06;9.52;;;5.65;;
82176;SDS011;71758;48.714;9.584;2023-09-12T10:03:03;12.77;;;5.97;;
82176;SDS011;71758;48.714;9.584;2023-09-12T10:05:31;12.45;;;6.18;;
82176;SDS011;71758;48.714;9.584;2023-09-12T10:07:58;16.65;;;6.65;;
82176;SDS011;71758;48.714;9.584;2023-09-12T10:10:25;14.43;;;6.25;;
82176;SDS011;71758;48.714;9.584;2023-09-12T10:12:57;11.77;;;6.22;;
82176;SDS011;71758;48.714;9.584;2023-09-12T10:15:23;13.00;;;6.07;;
82176;SDS011;71758;48.714;9.584;2023-09-12T10:18:02;13.40;;;6.47;;
82176;SDS011;71758;48.714;9.584;2023-09-12T10:20:45;11.93;;;6.07;;
82176;SDS011;71758;48.714;9.584;2023-09-12T10:23:16;14.90;;;6.07;;
82176;SDS011;71758;48.714;9.584;2023-09-12T10:25:45;11.07;;;6.70;;
82176;SDS011;71758;48.714;9.584;2023-09-12T10:28:10;10.05;;;6.53;;
82176;SDS011;71758;48.714;9.584;2023-09-12T10:30:36;12.50;;;7.05;;
82176;SDS011;71758;48.714;9.584;2023-09-12T10:33:02;11.90;;;7.63;;
82176;SDS011;71758;48.714;9.584;2023-09-12T10:35:29;13.35;;;7.03;;
82176;SDS011;71758;48.714;9.584;2023-09-12T10:37:55;9.73;;;5.63;;
82176;SDS011;71758;48.714;9.584;2023-09-12T10:40:24;12.00;;;6.50;;
82176;SDS011;71758;48.714;9.584;2023-09-12T10:42:51;10.27;;;6.80;;
82176;SDS011;71758;48.714;9.584;2023-09-12T10:45:17;13.82;;;6.90;;
82176;SDS011;71758;48.714;9.584;2023-09-12T10:47:42;12.63;;;7.15;;
82176;SDS011;71758;48.714;9.584;2023-09-12T10:50:08;12.52;;;6.72;;
82176;SDS011;71758;48.714;9.584;2023-09-12T10:52:34;11.20;;;7.45;;
82176;SDS011;71758;48.714;9.584;2023-09-12T10:55:04;12.50;;;5.97;;
82176;SDS011;71758;48.714;9.584;2023-09-12T10:57:30;10.50;;;6.32;;
82176;SDS011;71758;48.714;9.584;2023-09-12T11:02:30;15.85;;;7.28;;
82176;SDS011;71758;48.714;9.584;2023-09-12T11:04:55;10.07;;;5.57;;
82176;SDS011;71758;48.714;9.584;2023-09-12T11:10:24;10.65;;;6.40;;
82176;SDS011;71758;48.714;9.584;2023-09-12T11:12:50;10.23;;;5.18;;
82176;SDS011;71758;48.714;9.584;2023-09-12T11:15:18;12.25;;;5.63;;
82176;SDS011;71758;48.714;9.584;2023-09-12T11:17:45;8.73;;;5.97;;
82176;SDS011;71758;48.714;9.584;2023-09-12T11:20:12;10.25;;;5.40;;
82176;SDS011;71758;48.714;9.584;2023-09-12T11:27:46;12.23;;;5.80;;
82176;SDS011;71758;48.714;9.584;2023-09-12T11:30:28;10.73;;;6.00;;
82176;SDS011;71758;48.714;9.584;2023-09-12T11:35:22;12.73;;;5.67;;
82176;SDS011;71758;48.714;9.584;2023-09-12T11:37:49;11.15;;;6.13;;
82176;SDS011;71758;48.714;9.584;2023-09-12T11:40:16;10.45;;;5.20;;
82176;SDS011;71758;48.714;9.584;2023-09-12T11:42:43;13.45;;;6.10;;
82176;SDS011;71758;48.714;9.584;2023-09-12T11:45:09;14.15;;;5.18;;
82176;SDS011;71758;48.714;9.584;2023-09-12T11:47:41;13.13;;;5.40;;
82176;SDS011;71758;48.714;9.584;2023-09-12T11:50:08;11.30;;;5.47;;
82176;SDS011;71758;48.714;9.584;2023-09-12T11:52:37;8.55;;;4.70;;
82176;SDS011;71758;48.714;9.584;2023-09-12T11:55:03;10.75;;;4.95;;
82176;SDS011;71758;48.714;9.584;2023-09-12T11:57:29;8.85;;;5.28;;
82176;SDS011;71758;48.714;9.584;2023-09-12T11:59:54;11.40;;;5.43;;
82176;SDS011;71758;48.714;9.584;2023-09-12T12:02:21;9.77;;;4.68;;
82176;SDS011;71758;48.714;9.584;2023-09-12T12:04:46;8.80;;;3.95;;
82176;SDS011;71758;48.714;9.584;2023-09-12T12:07:11;9.60;;;4.57;;
82176;SDS011;71758;48.714;9.584;2023-09-12T12:09:38;10.93;;;3.80;;
82176;SDS011;71758;48.714;9.584;2023-09-12T12:12:04;10.10;;;3.58;;
82176;SDS011;71758;48.714;9.584;2023-09-12T12:14:39;7.55;;;3.83;;
82176;SDS011;71758;48.714;9.584;2023-09-12T12:17:06;7.75;;;3.75;;
82176;SDS011;71758;48.714;9.584;2023-09-12T12:19:35;6.57;;;4.65;;
82176;SDS011;71758;48.714;9.584;2023-09-12T12:22:02;10.57;;;4.13;;
82176;SDS011;71758;48.714;9.584;2023-09-12T12:24:35;7.22;;;3.75;;
82176;SDS011;71758;48.714;9.584;2023-09-12T12:27:02;9.80;;;4.15;;
82176;SDS011;71758;48.714;9.584;2023-09-12T12:29:28;8.60;;;4.30;;
82176;SDS011;71758;48.714;9.584;2023-09-12T12:31:53;7.40;;;3.90;;
82176;SDS011;71758;48.714;9.584;2023-09-12T12:34:21;6.25;;;4.25;;
82176;SDS011;71758;48.714;9.584;2023-09-12T12:36:46;8.02;;;3.65;;
82176;SDS011;71758;48.714;9.584;2023-09-12T12:39:12;8.52;;;4.35;;
82176;SDS011;71758;48.714;9.584;2023-09-12T12:41:38;7.03;;;4.40;;
82176;SDS011;71758;48.714;9.584;2023-09-12T12:44:03;8.02;;;4.60;;
82176;SDS011;71758;48.714;9.584;2023-09-12T12:46:29;7.97;;;3.60;;
82176;SDS011;71758;48.714;9.584;2023-09-12T12:48:55;7.28;;;3.70;;
82176;SDS011;71758;48.714;9.584;2023-09-12T12:51:22;8.20;;;4.50;;
82176;SDS011;71758;48.714;9.584;2023-09-12T12:53:49;9.85;;;4.60;;
82176;SDS011;71758;48.714;9.584;2023-09-12T12:56:22;10.40;;;4.35;;
82176;SDS011;71758;48.714;9.584;2023-09-12T12:58:49;7.40;;;4.20;;
82176;SDS011;71758;48.714;9.584;2023-09-12T13:01:16;5.93;;;3.70;;
82176;SDS011;71758;48.714;9.584;2023-09-12T13:03:41;7.07;;;3.97;;
82176;SDS011;71758;48.714;9.584;2023-09-12T13:06:07;8.27;;;4.10;;
82176;SDS011;71758;48.714;9.584;2023-09-12T13:08:38;7.20;;;4.50;;
82176;SDS011;71758;48.714;9.584;2023-09-12T13:11:04;9.38;;;4.53;;
82176;SDS011;71758;48.714;9.584;2023-09-12T13:13:29;11.88;;;5.03;;
82176;SDS011;71758;48.714;9.584;2023-09-12T13:15:55;10.48;;;4.10;;
82176;SDS011;71758;48.714;9.584;2023-09-12T13:18:20;8.80;;;4.10;;
82176;SDS011;71758;48.714;9.584;2023-09-12T13:20:45;6.75;;;4.32;;
82176;SDS011;71758;48.714;9.584;2023-09-12T13:23:11;8.15;;;3.80;;
82176;SDS011;71758;48.714;9.584;2023-09-12T13:25:36;9.13;;;4.38;;
82176;SDS011;71758;48.714;9.584;2023-09-12T13:28:01;8.52;;;4.07;;
82176;SDS011;71758;48.714;9.584;2023-09-12T13:30:27;7.93;;;4.03;;
82176;SDS011;71758;48.714;9.584;2023-09-12T13:32:52;7.97;;;4.55;;
82176;SDS011;71758;48.714;9.584;2023-09-12T13:35:18;8.68;;;3.95;;
82176;SDS011;71758;48.714;9.584;2023-09-12T13:37:43;8.25;;;3.72;;
82176;SDS011;71758;48.714;9.584;2023-09-12T13:40:09;9.82;;;4.70;;
82176;SDS011;71758;48.714;9.584;2023-09-12T13:42:34;6.47;;;3.95;;
82176;SDS011;71758;48.714;9.584;2023-09-12T13:44:59;5.90;;;3.30;;
82176;SDS011;71758;48.714;9.584;2023-09-12T13:47:25;6.80;;;3.88;;
82176;SDS011;71758;48.714;9.584;2023-09-12T13:49:50;8.30;;;4.15;;
82176;SDS011;71758;48.714;9.584;2023-09-12T13:54:44;7.85;;;4.45;;
82176;SDS011;71758;48.714;9.584;2023-09-12T13:57:10;8.52;;;4.70;;
82176;SDS011;71758;48.714;9.584;2023-09-12T13:59:35;6.97;;;4.07;;
82176;SDS011;71758;48.714;9.584;2023-09-12T14:02:01;7.88;;;4.32;;
82176;SDS011;71758;48.714;9.584;2023-09-12T14:04:26;9.10;;;4.75;;
82176;SDS011;71758;48.714;9.584;2023-09-12T14:06:51;8.80;;;4.20;;
82176;SDS011;71758;48.714;9.584;2023-09-12T14:09:17;7.35;;;4.10;;
82176;SDS011;71758;48.714;9.584;2023-09-12T14:11:42;7.65;;;4.55;;
82176;SDS011;71758;48.714;9.584;2023-09-12T14:14:08;9.30;;;4.50;;
82176;SDS011;71758;48.714;9.584;2023-09-12T14:16:33;8.32;;;4.32;;
82176;SDS011;71758;48.714;9.584;2023-09-12T14:18:59;8.45;;;4.05;;
82176;SDS011;71758;48.714;9.584;2023-09-12T14:21:24;5.95;;;3.90;;
82176;SDS011;71758;48.714;9.584;2023-09-12T14:23:50;8.68;;;4.28;;
82176;SDS011;71758;48.714;9.584;2023-09-12T14:26:15;10.05;;;4.28;;
82176;SDS011;71758;48.714;9.584;2023-09-12T14:28:40;9.13;;;4.97;;
82176;SDS011;71758;48.714;9.584;2023-09-12T14:31:06;5.45;;;3.67;;
82176;SDS011;71758;48.714;9.584;2023-09-12T14:33:38;9.00;;;4.53;;
82176;SDS011;71758;48.714;9.584;2023-09-12T14:36:05;7.90;;;4.50;;
82176;SDS011;71758;48.714;9.584;2023-09-12T14:38:34;8.10;;;4.35;;
82176;SDS011;71758;48.714;9.584;2023-09-12T14:41:00;6.75;;;3.92;;
82176;SDS011;71758;48.714;9.584;2023-09-12T14:43:26;7.95;;;4.50;;
82176;SDS011;71758;48.714;9.584;2023-09-12T14:45:53;10.02;;;4.50;;
82176;SDS011;71758;48.714;9.584;2023-09-12T14:48:19;6.25;;;4.47;;
82176;SDS011;71758;48.714;9.584;2023-09-12T14:50:45;8.60;;;4.80;;
82176;SDS011;71758;48.714;9.584;2023-09-12T14:53:14;10.07;;;4.90;;
82176;SDS011;71758;48.714;9.584;2023-09-12T14:55:40;8.10;;;4.65;;
82176;SDS011;71758;48.714;9.584;2023-09-12T14:58:05;10.18;;;4.45;;